sensor_id;sensor_type;location;lat;lon;timestamp;P1;durP1;ratioP1;P2;durP2;ratioP2
9128;SDS011;4599;50.906;6.786;2023-12-20T00:03:43;10.07;;;8.00;;
9128;SDS011;4599;50.906;6.786;2023-12-20T00:07:45;12.63;;;9.30;;
9128;SDS011;4599;50.906;6.786;2023-12-20T00:11:47;11.57;;;8.87;;
9128;SDS011;4599;50.906;6.786;2023-12-20T00:15:50;9.47;;;8.47;;
9128;SDS011;4599;50.906;6.786;2023-12-20T00:19:51;9.50;;;7.97;;
9128;SDS011;4599;50.906;6.786;2023-12-20T00:23:53;8.57;;;7.63;;
9128;SDS011;4599;50.906;6.786;2023-12-20T00:27:55;9.87;;;8.40;;
9128;SDS011;4599;50.906;6.786;2023-12-20T00:31:58;10.00;;;8.37;;
9128;SDS011;4599;50.906;6.786;2023-12-20T00:35:59;9.93;;;8.93;;
9128;SDS011;4599;50.906;6.786;2023-12-20T00:40:01;12.30;;;10.07;;
9128;SDS011;4599;50.906;6.786;2023-12-20T00:44:02;11.43;;;9.27;;
9128;SDS011;4599;50.906;6.786;2023-12-20T00:48:06;11.70;;;9.60;;
9128;SDS011;4599;50.906;6.786;2023-12-20T00:52:07;13.03;;;9.73;;
9128;SDS011;4599;50.906;6.786;2023-12-20T00:56:09;12.03;;;10.43;;
9128;SDS011;4599;50.906;6.786;2023-12-20T01:00:12;13.13;;;11.13;;
9128;SDS011;4599;50.906;6.786;2023-12-20T01:04:15;19.70;;;12.17;;
9128;SDS011;4599;50.906;6.786;2023-12-20T01:08:17;15.67;;;11.77;;
9128;SDS011;4599;50.906;6.786;2023-12-20T01:12:18;14.73;;;11.60;;
9128;SDS011;4599;50.906;6.786;2023-12-20T01:16:20;15.47;;;11.07;;
9128;SDS011;4599;50.906;6.786;2023-12-20T01:20:23;18.70;;;11.33;;
9128;SDS011;4599;50.906;6.786;2023-12-20T01:24:25;16.77;;;11.87;;
9128;SDS011;4599;50.906;6.786;2023-12-20T01:28:26;16.30;;;11.50;;
9128;SDS011;4599;50.906;6.786;2023-12-20T01:32:28;17.33;;;10.43;;
9128;SDS011;4599;50.906;6.786;2023-12-20T01:36:30;14.57;;;10.20;;
9128;SDS011;4599;50.906;6.786;2023-12-20T01:40:32;14.63;;;10.97;;
9128;SDS011;4599;50.906;6.786;2023-12-20T01:44:34;13.90;;;9.73;;
9128;SDS011;4599;50.906;6.786;2023-12-20T01:48:35;16.77;;;9.23;;
9128;SDS011;4599;50.906;6.786;2023-12-20T01:52:38;11.60;;;8.70;;
9128;SDS011;4599;50.906;6.786;2023-12-20T01:56:40;12.70;;;7.47;;
9128;SDS011;4599;50.906;6.786;2023-12-20T02:00:42;15.07;;;6.83;;
9128;SDS011;4599;50.906;6.786;2023-12-20T02:04:43;11.53;;;5.83;;
9128;SDS011;4599;50.906;6.786;2023-12-20T02:08:47;11.60;;;5.30;;
9128;SDS011;4599;50.906;6.786;2023-12-20T02:12:49;17.00;;;4.83;;
9128;SDS011;4599;50.906;6.786;2023-12-20T02:16:51;14.50;;;5.00;;
9128;SDS011;4599;50.906;6.786;2023-12-20T02:20:53;13.10;;;3.83;;
9128;SDS011;4599;50.906;6.786;2023-12-20T02:24:56;13.67;;;3.60;;
9128;SDS011;4599;50.906;6.786;2023-12-20T02:28:58;11.97;;;2.90;;
9128;SDS011;4599;50.906;6.786;2023-12-20T02:32:59;13.57;;;3.40;;
9128;SDS011;4599;50.906;6.786;2023-12-20T02:37:02;16.33;;;3.30;;
9128;SDS011;4599;50.906;6.786;2023-12-20T02:41:05;10.13;;;2.30;;
9128;SDS011;4599;50.906;6.786;2023-12-20T02:45:07;15.27;;;3.10;;
9128;SDS011;4599;50.906;6.786;2023-12-20T02:49:09;8.57;;;2.93;;
9128;SDS011;4599;50.906;6.786;2023-12-20T02:53:11;9.73;;;2.63;;
9128;SDS011;4599;50.906;6.786;2023-12-20T02:57:13;12.67;;;2.93;;
9128;SDS011;4599;50.906;6.786;2023-12-20T03:01:15;11.57;;;2.63;;
9128;SDS011;4599;50.906;6.786;2023-12-20T03:05:16;14.53;;;2.33;;
9128;SDS011;4599;50.906;6.786;2023-12-20T03:09:18;12.97;;;2.57;;
9128;SDS011;4599;50.906;6.786;2023-12-20T03:13:21;11.27;;;2.60;;
9128;SDS011;4599;50.906;6.786;2023-12-20T03:17:23;16.97;;;2.47;;
9128;SDS011;4599;50.906;6.786;2023-12-20T03:21:25;13.50;;;2.43;;
9128;SDS011;4599;50.906;6.786;2023-12-20T03:25:26;14.30;;;2.90;;
9128;SDS011;4599;50.906;6.786;2023-12-20T03:29:29;11.67;;;3.60;;
9128;SDS011;4599;50.906;6.786;2023-12-20T03:33:31;10.20;;;2.80;;
9128;SDS011;4599;50.906;6.786;2023-12-20T03:37:33;17.00;;;3.30;;
9128;SDS011;4599;50.906;6.786;2023-12-20T03:41:34;8.87;;;2.70;;
9128;SDS011;4599;50.906;6.786;2023-12-20T03:45:37;9.87;;;3.07;;
9128;SDS011;4599;50.906;6.786;2023-12-20T03:49:39;12.43;;;3.03;;
9128;SDS011;4599;50.906;6.786;2023-12-20T03:53:40;13.53;;;2.93;;
9128;SDS011;4599;50.906;6.786;2023-12-20T03:57:42;11.57;;;3.13;;
9128;SDS011;4599;50.906;6.786;2023-12-20T04:01:45;17.17;;;3.30;;
9128;SDS011;4599;50.906;6.786;2023-12-20T04:05:47;12.97;;;3.17;;
9128;SDS011;4599;50.906;6.786;2023-12-20T04:09:48;15.60;;;3.53;;
9128;SDS011;4599;50.906;6.786;2023-12-20T04:13:50;17.50;;;3.63;;
9128;SDS011;4599;50.906;6.786;2023-12-20T04:17:53;13.07;;;3.77;;
9128;SDS011;4599;50.906;6.786;2023-12-20T04:21:55;13.97;;;3.83;;
9128;SDS011;4599;50.906;6.786;2023-12-20T04:25:56;14.33;;;3.17;;
9128;SDS011;4599;50.906;6.786;2023-12-20T04:29:58;19.57;;;4.13;;
9128;SDS011;4599;50.906;6.786;2023-12-20T04:34:00;13.53;;;3.50;;
9128;SDS011;4599;50.906;6.786;2023-12-20T04:38:02;20.00;;;3.83;;
9128;SDS011;4599;50.906;6.786;2023-12-20T04:42:04;13.87;;;3.60;;
9128;SDS011;4599;50.906;6.786;2023-12-20T04:46:06;19.00;;;4.13;;
9128;SDS011;4599;50.906;6.786;2023-12-20T04:50:09;13.97;;;3.50;;
9128;SDS011;4599;50.906;6.786;2023-12-20T04:54:10;15.77;;;3.70;;
9128;SDS011;4599;50.906;6.786;2023-12-20T04:58:12;18.83;;;4.10;;
9128;SDS011;4599;50.906;6.786;2023-12-20T05:02:14;13.13;;;3.63;;
9128;SDS011;4599;50.906;6.786;2023-12-20T05:06:16;11.53;;;3.30;;
9128;SDS011;4599;50.906;6.786;2023-12-20T05:10:18;12.03;;;3.93;;
9128;SDS011;4599;50.906;6.786;2023-12-20T05:14:19;14.30;;;4.47;;
9128;SDS011;4599;50.906;6.786;2023-12-20T05:18:21;15.17;;;4.13;;
9128;SDS011;4599;50.906;6.786;2023-12-20T05:22:24;13.90;;;4.07;;
9128;SDS011;4599;50.906;6.786;2023-12-20T05:26:26;13.37;;;3.73;;
9128;SDS011;4599;50.906;6.786;2023-12-20T05:30:27;17.70;;;4.30;;
9128;SDS011;4599;50.906;6.786;2023-12-20T05:34:29;16.83;;;3.93;;
9128;SDS011;4599;50.906;6.786;2023-12-20T05:38:32;18.57;;;4.83;;
9128;SDS011;4599;50.906;6.786;2023-12-20T05:42:33;20.90;;;4.40;;
9128;SDS011;4599;50.906;6.786;2023-12-20T05:46:35;14.57;;;4.13;;
9128;SDS011;4599;50.906;6.786;2023-12-20T05:50:38;17.00;;;4.37;;
9128;SDS011;4599;50.906;6.786;2023-12-20T05:54:40;14.63;;;3.87;;
9128;SDS011;4599;50.906;6.786;2023-12-20T05:58:43;13.83;;;4.33;;
9128;SDS011;4599;50.906;6.786;2023-12-20T06:02:45;19.53;;;4.87;;
9128;SDS011;4599;50.906;6.786;2023-12-20T06:06:46;20.67;;;4.30;;
9128;SDS011;4599;50.906;6.786;2023-12-20T06:10:49;14.27;;;4.10;;
9128;SDS011;4599;50.906;6.786;2023-12-20T06:14:50;17.63;;;3.80;;
9128;SDS011;4599;50.906;6.786;2023-12-20T06:18:52;17.73;;;3.90;;
9128;SDS011;4599;50.906;6.786;2023-12-20T06:22:54;21.33;;;4.63;;
9128;SDS011;4599;50.906;6.786;2023-12-20T06:26:57;13.63;;;3.77;;
9128;SDS011;4599;50.906;6.786;2023-12-20T06:30:58;15.80;;;4.03;;
9128;SDS011;4599;50.906;6.786;2023-12-20T06:35:00;17.83;;;4.07;;
9128;SDS011;4599;50.906;6.786;2023-12-20T06:39:02;15.00;;;3.70;;
9128;SDS011;4599;50.906;6.786;2023-12-20T06:43:05;19.77;;;3.80;;
9128;SDS011;4599;50.906;6.786;2023-12-20T06:47:21;16.03;;;4.00;;
9128;SDS011;4599;50.906;6.786;2023-12-20T06:51:22;14.93;;;3.73;;
9128;SDS011;4599;50.906;6.786;2023-12-20T06:55:24;16.07;;;4.13;;
9128;SDS011;4599;50.906;6.786;2023-12-20T06:59:27;22.73;;;3.90;;
9128;SDS011;4599;50.906;6.786;2023-12-20T07:03:28;16.50;;;4.30;;
9128;SDS011;4599;50.906;6.786;2023-12-20T07:07:30;11.80;;;3.73;;
9128;SDS011;4599;50.906;6.786;2023-12-20T07:11:31;21.67;;;4.90;;
9128;SDS011;4599;50.906;6.786;2023-12-20T07:15:34;15.10;;;4.53;;
9128;SDS011;4599;50.906;6.786;2023-12-20T07:19:36;13.03;;;4.23;;
9128;SDS011;4599;50.906;6.786;2023-12-20T07:23:38;13.57;;;4.27;;
9128;SDS011;4599;50.906;6.786;2023-12-20T07:27:40;15.90;;;3.93;;
9128;SDS011;4599;50.906;6.786;2023-12-20T07:31:46;16.60;;;4.70;;
9128;SDS011;4599;50.906;6.786;2023-12-20T07:35:47;18.00;;;4.13;;
9128;SDS011;4599;50.906;6.786;2023-12-20T07:39:49;20.23;;;4.00;;
9128;SDS011;4599;50.906;6.786;2023-12-20T07:43:51;19.40;;;4.37;;
9128;SDS011;4599;50.906;6.786;2023-12-20T07:47:54;13.27;;;3.97;;
9128;SDS011;4599;50.906;6.786;2023-12-20T07:51:56;13.97;;;3.97;;
9128;SDS011;4599;50.906;6.786;2023-12-20T07:55:57;15.63;;;4.07;;
9128;SDS011;4599;50.906;6.786;2023-12-20T07:59:59;13.03;;;3.67;;
9128;SDS011;4599;50.906;6.786;2023-12-20T08:04:02;20.90;;;3.93;;
9128;SDS011;4599;50.906;6.786;2023-12-20T08:08:05;14.07;;;4.43;;
9128;SDS011;4599;50.906;6.786;2023-12-20T08:12:07;16.60;;;5.00;;
9128;SDS011;4599;50.906;6.786;2023-12-20T08:16:10;14.10;;;3.73;;
9128;SDS011;4599;50.906;6.786;2023-12-20T08:20:13;15.00;;;4.27;;
9128;SDS011;4599;50.906;6.786;2023-12-20T08:24:23;11.20;;;3.60;;
9128;SDS011;4599;50.906;6.786;2023-12-20T08:28:24;15.90;;;3.93;;
9128;SDS011;4599;50.906;6.786;2023-12-20T08:32:26;17.20;;;3.90;;
9128;SDS011;4599;50.906;6.786;2023-12-20T08:36:29;15.47;;;4.10;;
9128;SDS011;4599;50.906;6.786;2023-12-20T08:40:31;14.53;;;3.57;;
9128;SDS011;4599;50.906;6.786;2023-12-20T08:44:32;17.20;;;3.80;;
9128;SDS011;4599;50.906;6.786;2023-12-20T08:48:34;14.87;;;3.77;;
9128;SDS011;4599;50.906;6.786;2023-12-20T08:52:37;19.03;;;3.97;;
9128;SDS011;4599;50.906;6.786;2023-12-20T08:56:40;12.23;;;3.30;;
9128;SDS011;4599;50.906;6.786;2023-12-20T09:00:41;18.60;;;3.77;;
9128;SDS011;4599;50.906;6.786;2023-12-20T09:04:43;13.00;;;3.13;;
9128;SDS011;4599;50.906;6.786;2023-12-20T09:08:46;18.73;;;3.27;;
9128;SDS011;4599;50.906;6.786;2023-12-20T09:12:48;13.10;;;2.90;;
9128;SDS011;4599;50.906;6.786;2023-12-20T09:16:50;17.20;;;3.37;;
9128;SDS011;4599;50.906;6.786;2023-12-20T09:20:52;12.10;;;3.07;;
9128;SDS011;4599;50.906;6.786;2023-12-20T09:24:54;12.17;;;3.40;;
9128;SDS011;4599;50.906;6.786;2023-12-20T09:28:56;15.03;;;3.60;;
9128;SDS011;4599;50.906;6.786;2023-12-20T09:32:58;14.70;;;3.03;;
9128;SDS011;4599;50.906;6.786;2023-12-20T09:37:00;12.30;;;3.10;;
9128;SDS011;4599;50.906;6.786;2023-12-20T09:41:03;16.63;;;3.43;;
9128;SDS011;4599;50.906;6.786;2023-12-20T09:45:09;16.43;;;3.20;;
9128;SDS011;4599;50.906;6.786;2023-12-20T09:49:10;18.70;;;3.43;;
9128;SDS011;4599;50.906;6.786;2023-12-20T09:53:14;14.60;;;3.50;;
9128;SDS011;4599;50.906;6.786;2023-12-20T09:57:18;12.40;;;3.10;;
9128;SDS011;4599;50.906;6.786;2023-12-20T10:01:20;14.63;;;3.13;;
9128;SDS011;4599;50.906;6.786;2023-12-20T10:05:25;9.60;;;2.73;;
9128;SDS011;4599;50.906;6.786;2023-12-20T10:09:28;18.30;;;2.87;;
9128;SDS011;4599;50.906;6.786;2023-12-20T10:13:33;12.27;;;2.83;;
9128;SDS011;4599;50.906;6.786;2023-12-20T10:17:40;16.27;;;3.50;;
9128;SDS011;4599;50.906;6.786;2023-12-20T10:21:42;13.97;;;2.97;;
9128;SDS011;4599;50.906;6.786;2023-12-20T10:25:49;14.13;;;3.33;;
9128;SDS011;4599;50.906;6.786;2023-12-20T10:29:59;10.07;;;3.10;;
9128;SDS011;4599;50.906;6.786;2023-12-20T10:34:01;9.40;;;2.73;;
9128;SDS011;4599;50.906;6.786;2023-12-20T10:38:04;19.23;;;3.30;;
9128;SDS011;4599;50.906;6.786;2023-12-20T10:42:07;11.90;;;2.90;;
9128;SDS011;4599;50.906;6.786;2023-12-20T10:46:11;9.13;;;2.53;;
9128;SDS011;4599;50.906;6.786;2023-12-20T10:50:16;10.47;;;2.30;;
9128;SDS011;4599;50.906;6.786;2023-12-20T10:54:19;15.93;;;2.77;;
9128;SDS011;4599;50.906;6.786;2023-12-20T10:58:20;9.07;;;2.50;;
9128;SDS011;4599;50.906;6.786;2023-12-20T11:02:27;11.50;;;2.67;;
9128;SDS011;4599;50.906;6.786;2023-12-20T11:06:35;16.03;;;2.77;;
9128;SDS011;4599;50.906;6.786;2023-12-20T11:10:47;8.37;;;2.77;;
9128;SDS011;4599;50.906;6.786;2023-12-20T11:14:56;10.63;;;2.63;;
9128;SDS011;4599;50.906;6.786;2023-12-20T11:19:05;10.43;;;2.70;;
9128;SDS011;4599;50.906;6.786;2023-12-20T11:23:09;11.73;;;2.90;;
9128;SDS011;4599;50.906;6.786;2023-12-20T11:27:11;13.97;;;3.00;;
9128;SDS011;4599;50.906;6.786;2023-12-20T11:31:14;14.27;;;2.67;;
9128;SDS011;4599;50.906;6.786;2023-12-20T11:35:18;12.53;;;2.60;;
9128;SDS011;4599;50.906;6.786;2023-12-20T11:39:21;7.47;;;2.13;;
9128;SDS011;4599;50.906;6.786;2023-12-20T11:43:29;10.43;;;2.70;;
9128;SDS011;4599;50.906;6.786;2023-12-20T11:47:31;10.80;;;2.63;;
9128;SDS011;4599;50.906;6.786;2023-12-20T11:51:34;15.13;;;3.07;;
9128;SDS011;4599;50.906;6.786;2023-12-20T11:55:36;14.17;;;2.90;;
9128;SDS011;4599;50.906;6.786;2023-12-20T11:59:37;10.73;;;3.00;;
9128;SDS011;4599;50.906;6.786;2023-12-20T12:03:39;9.77;;;2.47;;
9128;SDS011;4599;50.906;6.786;2023-12-20T12:07:42;11.60;;;2.73;;
9128;SDS011;4599;50.906;6.786;2023-12-20T12:11:44;10.63;;;2.70;;
9128;SDS011;4599;50.906;6.786;2023-12-20T12:15:45;12.93;;;2.70;;
9128;SDS011;4599;50.906;6.786;2023-12-20T12:19:47;10.93;;;2.70;;
9128;SDS011;4599;50.906;6.786;2023-12-20T12:23:50;12.27;;;2.90;;
9128;SDS011;4599;50.906;6.786;2023-12-20T12:27:52;11.57;;;2.70;;
9128;SDS011;4599;50.906;6.786;2023-12-20T12:31:53;16.30;;;2.73;;
9128;SDS011;4599;50.906;6.786;2023-12-20T12:35:55;13.27;;;3.00;;
9128;SDS011;4599;50.906;6.786;2023-12-20T12:40:01;17.60;;;2.97;;
9128;SDS011;4599;50.906;6.786;2023-12-20T12:44:04;11.13;;;3.20;;
9128;SDS011;4599;50.906;6.786;2023-12-20T12:48:17;9.50;;;2.47;;
9128;SDS011;4599;50.906;6.786;2023-12-20T12:52:19;13.57;;;2.63;;
9128;SDS011;4599;50.906;6.786;2023-12-20T12:56:22;10.10;;;2.87;;
9128;SDS011;4599;50.906;6.786;2023-12-20T13:00:24;11.97;;;2.97;;
9128;SDS011;4599;50.906;6.786;2023-12-20T13:04:26;13.33;;;2.80;;
9128;SDS011;4599;50.906;6.786;2023-12-20T13:08:27;9.80;;;3.13;;
9128;SDS011;4599;50.906;6.786;2023-12-20T13:12:31;9.93;;;3.20;;
9128;SDS011;4599;50.906;6.786;2023-12-20T13:16:33;16.47;;;3.60;;
9128;SDS011;4599;50.906;6.786;2023-12-20T13:20:34;14.07;;;2.90;;
9128;SDS011;4599;50.906;6.786;2023-12-20T13:24:36;12.03;;;3.10;;
9128;SDS011;4599;50.906;6.786;2023-12-20T13:28:39;12.07;;;2.87;;
9128;SDS011;4599;50.906;6.786;2023-12-20T13:32:40;11.80;;;2.47;;
9128;SDS011;4599;50.906;6.786;2023-12-20T13:36:43;12.50;;;2.60;;
9128;SDS011;4599;50.906;6.786;2023-12-20T13:40:45;9.87;;;2.57;;
9128;SDS011;4599;50.906;6.786;2023-12-20T13:44:48;10.70;;;2.73;;
9128;SDS011;4599;50.906;6.786;2023-12-20T13:48:49;10.43;;;2.53;;
9128;SDS011;4599;50.906;6.786;2023-12-20T13:52:51;8.83;;;2.43;;
9128;SDS011;4599;50.906;6.786;2023-12-20T13:56:52;11.10;;;2.43;;
9128;SDS011;4599;50.906;6.786;2023-12-20T14:01:14;10.60;;;2.73;;
9128;SDS011;4599;50.906;6.786;2023-12-20T14:05:16;12.97;;;2.70;;
9128;SDS011;4599;50.906;6.786;2023-12-20T14:09:17;10.17;;;2.60;;
9128;SDS011;4599;50.906;6.786;2023-12-20T14:13:19;8.40;;;2.67;;
9128;SDS011;4599;50.906;6.786;2023-12-20T14:17:22;12.27;;;2.63;;
9128;SDS011;4599;50.906;6.786;2023-12-20T14:21:24;10.73;;;3.03;;
9128;SDS011;4599;50.906;6.786;2023-12-20T14:25:25;7.17;;;2.70;;
9128;SDS011;4599;50.906;6.786;2023-12-20T14:29:29;9.50;;;2.20;;
9128;SDS011;4599;50.906;6.786;2023-12-20T14:33:32;8.87;;;2.53;;
9128;SDS011;4599;50.906;6.786;2023-12-20T14:37:34;9.27;;;2.63;;
9128;SDS011;4599;50.906;6.786;2023-12-20T14:41:35;7.10;;;2.40;;
9128;SDS011;4599;50.906;6.786;2023-12-20T14:45:37;9.80;;;2.60;;
9128;SDS011;4599;50.906;6.786;2023-12-20T14:49:41;10.53;;;2.97;;
9128;SDS011;4599;50.906;6.786;2023-12-20T14:53:43;13.67;;;3.20;;
9128;SDS011;4599;50.906;6.786;2023-12-20T14:57:44;8.23;;;2.80;;
9128;SDS011;4599;50.906;6.786;2023-12-20T15:01:47;10.27;;;2.77;;
9128;SDS011;4599;50.906;6.786;2023-12-20T15:05:50;12.57;;;2.77;;
9128;SDS011;4599;50.906;6.786;2023-12-20T15:09:51;7.07;;;2.40;;
9128;SDS011;4599;50.906;6.786;2023-12-20T15:13:53;9.93;;;2.83;;
9128;SDS011;4599;50.906;6.786;2023-12-20T15:17:55;10.60;;;2.90;;
9128;SDS011;4599;50.906;6.786;2023-12-20T15:21:57;7.80;;;2.80;;
9128;SDS011;4599;50.906;6.786;2023-12-20T15:26:00;11.13;;;2.97;;
9128;SDS011;4599;50.906;6.786;2023-12-20T15:30:02;10.63;;;3.10;;
9128;SDS011;4599;50.906;6.786;2023-12-20T15:34:04;12.23;;;3.23;;
9128;SDS011;4599;50.906;6.786;2023-12-20T15:38:07;15.50;;;3.40;;
9128;SDS011;4599;50.906;6.786;2023-12-20T15:42:09;13.83;;;3.50;;
9128;SDS011;4599;50.906;6.786;2023-12-20T15:46:10;14.20;;;3.37;;
9128;SDS011;4599;50.906;6.786;2023-12-20T15:50:12;12.27;;;3.73;;
9128;SDS011;4599;50.906;6.786;2023-12-20T15:54:15;11.60;;;3.20;;
9128;SDS011;4599;50.906;6.786;2023-12-20T15:58:17;11.43;;;3.00;;
9128;SDS011;4599;50.906;6.786;2023-12-20T16:02:18;11.27;;;3.10;;
9128;SDS011;4599;50.906;6.786;2023-12-20T16:06:20;10.93;;;3.33;;
9128;SDS011;4599;50.906;6.786;2023-12-20T16:10:23;10.73;;;3.17;;
9128;SDS011;4599;50.906;6.786;2023-12-20T16:14:24;10.60;;;3.70;;
9128;SDS011;4599;50.906;6.786;2023-12-20T16:18:26;12.83;;;3.43;;
9128;SDS011;4599;50.906;6.786;2023-12-20T16:22:28;14.93;;;3.70;;
9128;SDS011;4599;50.906;6.786;2023-12-20T16:26:31;10.00;;;3.60;;
9128;SDS011;4599;50.906;6.786;2023-12-20T16:30:32;14.63;;;3.70;;
9128;SDS011;4599;50.906;6.786;2023-12-20T16:34:34;11.97;;;3.97;;
9128;SDS011;4599;50.906;6.786;2023-12-20T16:38:36;14.47;;;3.27;;
9128;SDS011;4599;50.906;6.786;2023-12-20T16:42:39;10.93;;;3.53;;
9128;SDS011;4599;50.906;6.786;2023-12-20T16:46:40;11.93;;;3.53;;
9128;SDS011;4599;50.906;6.786;2023-12-20T16:50:42;14.20;;;3.73;;
9128;SDS011;4599;50.906;6.786;2023-12-20T16:54:45;13.10;;;3.73;;
9128;SDS011;4599;50.906;6.786;2023-12-20T16:58:49;11.77;;;3.40;;
9128;SDS011;4599;50.906;6.786;2023-12-20T17:02:50;13.20;;;3.60;;
9128;SDS011;4599;50.906;6.786;2023-12-20T17:06:52;13.57;;;4.03;;
9128;SDS011;4599;50.906;6.786;2023-12-20T17:10:54;12.40;;;3.50;;
9128;SDS011;4599;50.906;6.786;2023-12-20T17:14:58;15.50;;;4.00;;
9128;SDS011;4599;50.906;6.786;2023-12-20T17:19:00;15.30;;;3.73;;
9128;SDS011;4599;50.906;6.786;2023-12-20T17:23:01;14.63;;;4.00;;
9128;SDS011;4599;50.906;6.786;2023-12-20T17:27:03;12.93;;;3.70;;
9128;SDS011;4599;50.906;6.786;2023-12-20T17:31:06;14.73;;;3.73;;
9128;SDS011;4599;50.906;6.786;2023-12-20T17:35:08;13.13;;;3.60;;
9128;SDS011;4599;50.906;6.786;2023-12-20T17:39:09;13.07;;;3.90;;
9128;SDS011;4599;50.906;6.786;2023-12-20T17:43:11;11.60;;;3.00;;
9128;SDS011;4599;50.906;6.786;2023-12-20T17:47:14;11.20;;;3.87;;
9128;SDS011;4599;50.906;6.786;2023-12-20T17:51:16;11.50;;;3.23;;
9128;SDS011;4599;50.906;6.786;2023-12-20T17:55:17;11.77;;;3.30;;
9128;SDS011;4599;50.906;6.786;2023-12-20T17:59:19;8.50;;;3.13;;
9128;SDS011;4599;50.906;6.786;2023-12-20T18:03:22;13.20;;;2.83;;
9128;SDS011;4599;50.906;6.786;2023-12-20T18:07:23;10.37;;;3.40;;
9128;SDS011;4599;50.906;6.786;2023-12-20T18:11:25;10.53;;;3.20;;
9128;SDS011;4599;50.906;6.786;2023-12-20T18:15:26;10.97;;;3.30;;
9128;SDS011;4599;50.906;6.786;2023-12-20T18:19:29;7.97;;;3.13;;
9128;SDS011;4599;50.906;6.786;2023-12-20T18:23:31;8.23;;;3.17;;
9128;SDS011;4599;50.906;6.786;2023-12-20T18:27:32;10.27;;;2.70;;
9128;SDS011;4599;50.906;6.786;2023-12-20T18:31:35;8.90;;;2.90;;
9128;SDS011;4599;50.906;6.786;2023-12-20T18:35:38;12.93;;;3.27;;
9128;SDS011;4599;50.906;6.786;2023-12-20T18:39:39;12.17;;;3.40;;
9128;SDS011;4599;50.906;6.786;2023-12-20T18:43:41;8.70;;;2.80;;
9128;SDS011;4599;50.906;6.786;2023-12-20T18:47:43;8.73;;;2.50;;
9128;SDS011;4599;50.906;6.786;2023-12-20T18:51:46;8.10;;;3.27;;
9128;SDS011;4599;50.906;6.786;2023-12-20T18:55:47;10.60;;;2.57;;
9128;SDS011;4599;50.906;6.786;2023-12-20T18:59:49;9.93;;;2.67;;
9128;SDS011;4599;50.906;6.786;2023-12-20T19:03:51;9.60;;;3.63;;
9128;SDS011;4599;50.906;6.786;2023-12-20T19:07:54;10.17;;;3.23;;
9128;SDS011;4599;50.906;6.786;2023-12-20T19:11:55;12.03;;;3.03;;
9128;SDS011;4599;50.906;6.786;2023-12-20T19:15:57;7.07;;;2.43;;
9128;SDS011;4599;50.906;6.786;2023-12-20T19:19:58;11.57;;;2.50;;
9128;SDS011;4599;50.906;6.786;2023-12-20T19:24:02;9.33;;;3.00;;
9128;SDS011;4599;50.906;6.786;2023-12-20T19:28:03;8.37;;;2.77;;
9128;SDS011;4599;50.906;6.786;2023-12-20T19:32:05;9.03;;;2.90;;
9128;SDS011;4599;50.906;6.786;2023-12-20T19:36:08;9.63;;;2.90;;
9128;SDS011;4599;50.906;6.786;2023-12-20T19:40:16;10.33;;;3.00;;
9128;SDS011;4599;50.906;6.786;2023-12-20T19:44:18;7.43;;;2.80;;
9128;SDS011;4599;50.906;6.786;2023-12-20T19:48:20;8.73;;;3.07;;
9128;SDS011;4599;50.906;6.786;2023-12-20T19:52:21;13.27;;;2.80;;
9128;SDS011;4599;50.906;6.786;2023-12-20T19:56:24;7.43;;;2.63;;
9128;SDS011;4599;50.906;6.786;2023-12-20T20:00:26;9.70;;;2.60;;
9128;SDS011;4599;50.906;6.786;2023-12-20T20:04:31;7.80;;;2.80;;
9128;SDS011;4599;50.906;6.786;2023-12-20T20:08:33;8.37;;;2.40;;
9128;SDS011;4599;50.906;6.786;2023-12-20T20:12:36;8.03;;;2.70;;
9128;SDS011;4599;50.906;6.786;2023-12-20T20:16:38;5.73;;;2.27;;
9128;SDS011;4599;50.906;6.786;2023-12-20T20:20:40;7.60;;;2.40;;
9128;SDS011;4599;50.906;6.786;2023-12-20T20:24:44;8.73;;;2.63;;
9128;SDS011;4599;50.906;6.786;2023-12-20T20:28:47;7.90;;;2.20;;
9128;SDS011;4599;50.906;6.786;2023-12-20T20:32:49;9.93;;;2.30;;
9128;SDS011;4599;50.906;6.786;2023-12-20T20:36:53;9.70;;;2.93;;
9128;SDS011;4599;50.906;6.786;2023-12-20T20:40:54;12.03;;;2.80;;
9128;SDS011;4599;50.906;6.786;2023-12-20T20:44:57;8.43;;;2.40;;
9128;SDS011;4599;50.906;6.786;2023-12-20T20:48:59;8.10;;;2.47;;
9128;SDS011;4599;50.906;6.786;2023-12-20T20:53:01;10.87;;;2.63;;
9128;SDS011;4599;50.906;6.786;2023-12-20T20:57:03;9.77;;;2.83;;
9128;SDS011;4599;50.906;6.786;2023-12-20T21:01:06;9.03;;;2.50;;
9128;SDS011;4599;50.906;6.786;2023-12-20T21:05:08;7.03;;;2.57;;
9128;SDS011;4599;50.906;6.786;2023-12-20T21:09:10;5.23;;;1.90;;
9128;SDS011;4599;50.906;6.786;2023-12-20T21:13:11;6.33;;;2.30;;
9128;SDS011;4599;50.906;6.786;2023-12-20T21:17:14;4.97;;;2.00;;
9128;SDS011;4599;50.906;6.786;2023-12-20T21:21:16;8.17;;;2.30;;
9128;SDS011;4599;50.906;6.786;2023-12-20T21:25:18;6.97;;;2.27;;
9128;SDS011;4599;50.906;6.786;2023-12-20T21:29:20;5.27;;;2.10;;
9128;SDS011;4599;50.906;6.786;2023-12-20T21:33:23;9.03;;;2.40;;
9128;SDS011;4599;50.906;6.786;2023-12-20T21:37:24;10.77;;;2.70;;
9128;SDS011;4599;50.906;6.786;2023-12-20T21:41:26;6.77;;;2.20;;
9128;SDS011;4599;50.906;6.786;2023-12-20T21:45:27;9.03;;;2.40;;
9128;SDS011;4599;50.906;6.786;2023-12-20T21:49:30;9.17;;;2.43;;
9128;SDS011;4599;50.906;6.786;2023-12-20T21:53:32;6.37;;;2.10;;
9128;SDS011;4599;50.906;6.786;2023-12-20T21:57:33;7.30;;;3.13;;
9128;SDS011;4599;50.906;6.786;2023-12-20T22:01:35;6.23;;;2.10;;
9128;SDS011;4599;50.906;6.786;2023-12-20T22:05:38;11.60;;;2.60;;
9128;SDS011;4599;50.906;6.786;2023-12-20T22:09:40;6.47;;;2.43;;
9128;SDS011;4599;50.906;6.786;2023-12-20T22:13:42;4.57;;;2.30;;
9128;SDS011;4599;50.906;6.786;2023-12-20T22:17:43;6.40;;;2.10;;
9128;SDS011;4599;50.906;6.786;2023-12-20T22:21:47;3.87;;;2.13;;
9128;SDS011;4599;50.906;6.786;2023-12-20T22:25:48;5.23;;;2.00;;
9128;SDS011;4599;50.906;6.786;2023-12-20T22:29:50;9.33;;;2.00;;
9128;SDS011;4599;50.906;6.786;2023-12-20T22:33:52;8.60;;;2.37;;
9128;SDS011;4599;50.906;6.786;2023-12-20T22:37:55;6.87;;;2.10;;
9128;SDS011;4599;50.906;6.786;2023-12-20T22:41:56;5.07;;;2.03;;
9128;SDS011;4599;50.906;6.786;2023-12-20T22:45:58;5.57;;;2.43;;
9128;SDS011;4599;50.906;6.786;2023-12-20T22:49:59;6.83;;;2.37;;
9128;SDS011;4599;50.906;6.786;2023-12-20T22:54:02;5.47;;;2.13;;
9128;SDS011;4599;50.906;6.786;2023-12-20T22:58:04;5.30;;;2.10;;
9128;SDS011;4599;50.906;6.786;2023-12-20T23:02:06;4.40;;;1.90;;
9128;SDS011;4599;50.906;6.786;2023-12-20T23:06:07;6.37;;;2.00;;
9128;SDS011;4599;50.906;6.786;2023-12-20T23:10:10;4.70;;;1.83;;
9128;SDS011;4599;50.906;6.786;2023-12-20T23:14:12;6.03;;;1.97;;
9128;SDS011;4599;50.906;6.786;2023-12-20T23:18:17;4.70;;;2.20;;
9128;SDS011;4599;50.906;6.786;2023-12-20T23:22:19;4.27;;;2.00;;
9128;SDS011;4599;50.906;6.786;2023-12-20T23:26:22;5.67;;;1.90;;
9128;SDS011;4599;50.906;6.786;2023-12-20T23:30:23;5.17;;;1.90;;
9128;SDS011;4599;50.906;6.786;2023-12-20T23:34:25;3.50;;;1.80;;
9128;SDS011;4599;50.906;6.786;2023-12-20T23:38:26;3.93;;;1.50;;
9128;SDS011;4599;50.906;6.786;2023-12-20T23:42:29;2.50;;;1.60;;
9128;SDS011;4599;50.906;6.786;2023-12-20T23:46:31;1.60;;;1.43;;
9128;SDS011;4599;50.906;6.786;2023-12-20T23:50:32;2.00;;;1.50;;
9128;SDS011;4599;50.906;6.786;2023-12-20T23:54:34;4.03;;;1.50;;
9128;SDS011;4599;50.906;6.786;2023-12-20T23:58:37;3.57;;;1.43;;
